Etusivu
METAR-TAF:

METAR-TAF

Lentoasemat :

Brownwood, Texas, Yhdysvallat

Leveyspiiri: 31-48N, Pituuspiiri: 098-57W, korkeus merenpinnasta: 422 m

Tämänhetkinen sää

Tämä raportti tehtiin 24 minuuttia sitten, kello 13.15 UTC
Tuuli 4 kn etelästä
Lämpötila 16°C
Kosteus 100%
Ilmanpaine 1007 hPa
Näkyvyys: 16.1 km
Hajonneita pilviä 9000 ft:n korkeudessa
Pilvistä 12000 ft:n korkeudessa

METAR: KBWD 211315Z AUTO 19004KT 10SM BKN090 OVC120 16/16 A2973 RMK AO1

Aika: 08:39 (13:39 UTC)


TAF: puuttuu

Säähavainnot ja -ennusteet yli 4000 lentoasemalta (METAR- ja TAF-raportit).

Käytössä olevat sääasemat on merkitty karttaan keltaisilla ja punaisilla pisteillä.

Aseta hiiri pisteen päälle nähdäksesi sääaseman nimen.

Klikkaa sitten nähdäksesi säähavainnot ja -ennusteet.

Kartan vaihtaminen: klikkaa mustalla rastilla varustettuja vihreitä pisteitä, niin voit zoomata sisään; viivalla varustettua vihreää pistettä, niin voit zoomata ulos tai vihreitä nuolia, niin pääset viereisille kartoille.


METAR-TAF: